Terminal Aerodrome Forecast
Issued by NWS

Home | Current Version | Previous Version | Graphics & Text | Print | Product List | Glossary On
Versions: 1 2 3 4 5 6 7 8 9 10 11 12 13 14 15
798
FTUS43 KBIS 210520
TAFMOT
TAF
KMOT 210520Z 2106/2206 12006KT P6SM SCT150
     FM211500 18011G19KT P6SM FEW070 SCT200
     FM211700 17015G26KT P6SM FEW060 SCT250
     FM220200 16014KT P6SM FEW070 SCT250=

USA.gov is the U.S. government's official web portal to all federal, state and local government web resources and services.